sensor_id;sensor_type;location;lat;lon;timestamp;P1;durP1;ratioP1;P2;durP2;ratioP2
35917;SDS011;22011;59.912;30.300;2023-06-22T00:01:21;11.80;;;8.32;;
35917;SDS011;22011;59.912;30.300;2023-06-22T00:03:49;11.20;;;7.43;;
35917;SDS011;22011;59.912;30.300;2023-06-22T00:06:16;12.38;;;7.78;;
35917;SDS011;22011;59.912;30.300;2023-06-22T00:08:45;10.23;;;7.57;;
35917;SDS011;22011;59.912;30.300;2023-06-22T00:11:13;13.38;;;7.43;;
35917;SDS011;22011;59.912;30.300;2023-06-22T00:13:40;12.27;;;7.38;;
35917;SDS011;22011;59.912;30.300;2023-06-22T00:16:08;9.07;;;7.57;;
35917;SDS011;22011;59.912;30.300;2023-06-22T00:18:35;16.48;;;8.93;;
35917;SDS011;22011;59.912;30.300;2023-06-22T00:21:02;14.90;;;8.70;;
35917;SDS011;22011;59.912;30.300;2023-06-22T00:23:30;16.80;;;9.70;;
35917;SDS011;22011;59.912;30.300;2023-06-22T00:26:01;18.00;;;8.65;;
35917;SDS011;22011;59.912;30.300;2023-06-22T00:28:29;14.90;;;8.73;;
35917;SDS011;22011;59.912;30.300;2023-06-22T00:30:56;14.45;;;8.02;;
35917;SDS011;22011;59.912;30.300;2023-06-22T00:33:25;12.20;;;7.53;;
35917;SDS011;22011;59.912;30.300;2023-06-22T00:35:54;15.23;;;6.45;;
35917;SDS011;22011;59.912;30.300;2023-06-22T00:38:21;9.73;;;6.68;;
35917;SDS011;22011;59.912;30.300;2023-06-22T00:40:49;9.65;;;6.05;;
35917;SDS011;22011;59.912;30.300;2023-06-22T00:43:17;7.68;;;5.68;;
35917;SDS011;22011;59.912;30.300;2023-06-22T00:45:45;7.90;;;5.72;;
35917;SDS011;22011;59.912;30.300;2023-06-22T00:48:13;10.38;;;6.53;;
35917;SDS011;22011;59.912;30.300;2023-06-22T00:50:41;7.57;;;5.90;;
35917;SDS011;22011;59.912;30.300;2023-06-22T00:53:09;16.30;;;5.68;;
35917;SDS011;22011;59.912;30.300;2023-06-22T00:55:39;9.67;;;6.83;;
35917;SDS011;22011;59.912;30.300;2023-06-22T00:58:09;7.07;;;5.78;;
35917;SDS011;22011;59.912;30.300;2023-06-22T01:00:38;8.30;;;5.82;;
35917;SDS011;22011;59.912;30.300;2023-06-22T01:03:06;9.65;;;6.32;;
35917;SDS011;22011;59.912;30.300;2023-06-22T01:05:35;8.13;;;6.63;;
35917;SDS011;22011;59.912;30.300;2023-06-22T01:08:06;8.40;;;6.60;;
35917;SDS011;22011;59.912;30.300;2023-06-22T01:10:49;7.50;;;6.00;;
35917;SDS011;22011;59.912;30.300;2023-06-22T01:13:23;9.45;;;6.53;;
35917;SDS011;22011;59.912;30.300;2023-06-22T01:15:59;12.63;;;6.43;;
35917;SDS011;22011;59.912;30.300;2023-06-22T01:18:30;10.82;;;7.00;;
35917;SDS011;22011;59.912;30.300;2023-06-22T01:21:00;11.98;;;7.00;;
35917;SDS011;22011;59.912;30.300;2023-06-22T01:23:31;7.88;;;7.07;;
35917;SDS011;22011;59.912;30.300;2023-06-22T01:26:05;8.18;;;6.30;;
35917;SDS011;22011;59.912;30.300;2023-06-22T01:28:45;8.68;;;7.07;;
35917;SDS011;22011;59.912;30.300;2023-06-22T01:31:13;9.73;;;6.93;;
35917;SDS011;22011;59.912;30.300;2023-06-22T01:36:13;7.65;;;6.20;;
35917;SDS011;22011;59.912;30.300;2023-06-22T01:38:42;8.38;;;6.68;;
35917;SDS011;22011;59.912;30.300;2023-06-22T01:41:11;10.63;;;7.20;;
35917;SDS011;22011;59.912;30.300;2023-06-22T01:43:39;7.65;;;6.40;;
35917;SDS011;22011;59.912;30.300;2023-06-22T01:46:09;9.48;;;6.72;;
35917;SDS011;22011;59.912;30.300;2023-06-22T01:48:38;15.48;;;7.30;;
35917;SDS011;22011;59.912;30.300;2023-06-22T01:51:06;9.93;;;7.00;;
35917;SDS011;22011;59.912;30.300;2023-06-22T01:53:34;11.45;;;7.03;;
35917;SDS011;22011;59.912;30.300;2023-06-22T01:56:02;10.23;;;6.70;;
35917;SDS011;22011;59.912;30.300;2023-06-22T01:58:30;11.38;;;7.18;;
35917;SDS011;22011;59.912;30.300;2023-06-22T02:00:59;12.88;;;7.28;;
35917;SDS011;22011;59.912;30.300;2023-06-22T02:03:38;8.52;;;7.35;;
35917;SDS011;22011;59.912;30.300;2023-06-22T02:06:14;10.80;;;7.25;;
35917;SDS011;22011;59.912;30.300;2023-06-22T02:08:46;20.15;;;7.72;;
35917;SDS011;22011;59.912;30.300;2023-06-22T02:11:17;14.38;;;6.53;;
35917;SDS011;22011;59.912;30.300;2023-06-22T02:13:46;13.05;;;8.80;;
35917;SDS011;22011;59.912;30.300;2023-06-22T02:16:15;8.93;;;6.97;;
35917;SDS011;22011;59.912;30.300;2023-06-22T02:18:47;15.63;;;7.40;;
35917;SDS011;22011;59.912;30.300;2023-06-22T02:21:16;13.52;;;7.40;;
35917;SDS011;22011;59.912;30.300;2023-06-22T02:23:44;12.23;;;7.07;;
35917;SDS011;22011;59.912;30.300;2023-06-22T02:26:11;13.90;;;7.55;;
35917;SDS011;22011;59.912;30.300;2023-06-22T02:28:40;10.82;;;7.80;;
35917;SDS011;22011;59.912;30.300;2023-06-22T02:31:08;16.77;;;7.70;;
35917;SDS011;22011;59.912;30.300;2023-06-22T02:33:36;13.98;;;7.50;;
35917;SDS011;22011;59.912;30.300;2023-06-22T02:36:05;11.88;;;7.65;;
35917;SDS011;22011;59.912;30.300;2023-06-22T02:38:34;13.18;;;8.15;;
35917;SDS011;22011;59.912;30.300;2023-06-22T02:41:02;9.82;;;6.93;;
35917;SDS011;22011;59.912;30.300;2023-06-22T02:43:30;11.65;;;7.22;;
35917;SDS011;22011;59.912;30.300;2023-06-22T02:45:57;10.25;;;7.60;;
35917;SDS011;22011;59.912;30.300;2023-06-22T02:48:25;9.15;;;7.53;;
35917;SDS011;22011;59.912;30.300;2023-06-22T02:50:52;11.82;;;7.68;;
35917;SDS011;22011;59.912;30.300;2023-06-22T02:53:21;10.50;;;7.63;;
35917;SDS011;22011;59.912;30.300;2023-06-22T02:55:49;9.73;;;7.75;;
35917;SDS011;22011;59.912;30.300;2023-06-22T02:58:16;9.55;;;7.20;;
35917;SDS011;22011;59.912;30.300;2023-06-22T03:00:44;9.45;;;7.28;;
35917;SDS011;22011;59.912;30.300;2023-06-22T03:03:12;9.25;;;7.03;;
35917;SDS011;22011;59.912;30.300;2023-06-22T03:05:39;11.80;;;8.40;;
35917;SDS011;22011;59.912;30.300;2023-06-22T03:08:07;11.20;;;8.10;;
35917;SDS011;22011;59.912;30.300;2023-06-22T03:10:36;12.38;;;8.13;;
35917;SDS011;22011;59.912;30.300;2023-06-22T03:13:04;8.97;;;7.20;;
35917;SDS011;22011;59.912;30.300;2023-06-22T03:15:31;8.05;;;7.03;;
35917;SDS011;22011;59.912;30.300;2023-06-22T03:18:00;11.88;;;7.38;;
35917;SDS011;22011;59.912;30.300;2023-06-22T03:20:27;9.88;;;7.75;;
35917;SDS011;22011;59.912;30.300;2023-06-22T03:22:59;13.32;;;7.60;;
35917;SDS011;22011;59.912;30.300;2023-06-22T03:25:27;12.45;;;7.82;;
35917;SDS011;22011;59.912;30.300;2023-06-22T03:27:56;13.32;;;6.72;;
35917;SDS011;22011;59.912;30.300;2023-06-22T03:30:25;12.15;;;7.75;;
35917;SDS011;22011;59.912;30.300;2023-06-22T03:32:52;9.57;;;8.30;;
35917;SDS011;22011;59.912;30.300;2023-06-22T03:35:20;14.88;;;7.55;;
35917;SDS011;22011;59.912;30.300;2023-06-22T03:37:48;10.40;;;6.75;;
35917;SDS011;22011;59.912;30.300;2023-06-22T03:40:15;13.27;;;7.32;;
35917;SDS011;22011;59.912;30.300;2023-06-22T03:42:43;9.80;;;6.28;;
35917;SDS011;22011;59.912;30.300;2023-06-22T03:45:12;12.30;;;6.88;;
35917;SDS011;22011;59.912;30.300;2023-06-22T03:50:08;9.38;;;6.35;;
35917;SDS011;22011;59.912;30.300;2023-06-22T03:52:35;14.75;;;6.53;;
35917;SDS011;22011;59.912;30.300;2023-06-22T03:55:03;12.05;;;6.80;;
35917;SDS011;22011;59.912;30.300;2023-06-22T03:57:31;9.52;;;6.32;;
35917;SDS011;22011;59.912;30.300;2023-06-22T03:59:59;12.70;;;7.05;;
35917;SDS011;22011;59.912;30.300;2023-06-22T04:02:28;7.85;;;6.65;;
35917;SDS011;22011;59.912;30.300;2023-06-22T04:04:55;7.28;;;5.50;;
35917;SDS011;22011;59.912;30.300;2023-06-22T04:07:23;8.93;;;5.80;;
35917;SDS011;22011;59.912;30.300;2023-06-22T04:09:50;11.15;;;5.85;;
35917;SDS011;22011;59.912;30.300;2023-06-22T04:12:18;9.10;;;7.28;;
35917;SDS011;22011;59.912;30.300;2023-06-22T04:14:45;7.88;;;6.72;;
35917;SDS011;22011;59.912;30.300;2023-06-22T04:17:13;6.10;;;5.47;;
35917;SDS011;22011;59.912;30.300;2023-06-22T04:19:42;6.55;;;5.70;;
35917;SDS011;22011;59.912;30.300;2023-06-22T04:22:09;10.50;;;5.60;;
35917;SDS011;22011;59.912;30.300;2023-06-22T04:24:37;11.13;;;6.70;;
35917;SDS011;22011;59.912;30.300;2023-06-22T04:27:05;6.15;;;5.50;;
35917;SDS011;22011;59.912;30.300;2023-06-22T04:29:33;6.68;;;6.03;;
35917;SDS011;22011;59.912;30.300;2023-06-22T04:32:00;11.50;;;6.97;;
35917;SDS011;22011;59.912;30.300;2023-06-22T04:34:31;8.40;;;6.45;;
35917;SDS011;22011;59.912;30.300;2023-06-22T04:37:00;9.07;;;7.20;;
35917;SDS011;22011;59.912;30.300;2023-06-22T04:39:27;6.90;;;5.83;;
35917;SDS011;22011;59.912;30.300;2023-06-22T04:41:54;7.68;;;6.30;;
35917;SDS011;22011;59.912;30.300;2023-06-22T04:44:26;9.77;;;6.57;;
35917;SDS011;22011;59.912;30.300;2023-06-22T04:46:54;7.75;;;6.47;;
35917;SDS011;22011;59.912;30.300;2023-06-22T04:49:25;12.40;;;6.85;;
35917;SDS011;22011;59.912;30.300;2023-06-22T04:52:00;8.63;;;6.10;;
35917;SDS011;22011;59.912;30.300;2023-06-22T04:54:27;7.20;;;6.50;;
35917;SDS011;22011;59.912;30.300;2023-06-22T04:56:55;7.18;;;6.35;;
35917;SDS011;22011;59.912;30.300;2023-06-22T04:59:23;34.97;;;8.55;;
35917;SDS011;22011;59.912;30.300;2023-06-22T05:01:54;10.82;;;9.13;;
35917;SDS011;22011;59.912;30.300;2023-06-22T05:04:22;12.35;;;8.00;;
35917;SDS011;22011;59.912;30.300;2023-06-22T05:06:50;27.92;;;9.73;;
35917;SDS011;22011;59.912;30.300;2023-06-22T05:09:19;12.80;;;8.27;;
35917;SDS011;22011;59.912;30.300;2023-06-22T05:11:47;17.13;;;8.23;;
35917;SDS011;22011;59.912;30.300;2023-06-22T05:14:14;12.10;;;8.73;;
35917;SDS011;22011;59.912;30.300;2023-06-22T05:16:42;16.40;;;9.68;;
35917;SDS011;22011;59.912;30.300;2023-06-22T05:19:10;23.88;;;9.57;;
35917;SDS011;22011;59.912;30.300;2023-06-22T05:21:37;20.35;;;8.05;;
35917;SDS011;22011;59.912;30.300;2023-06-22T05:24:05;17.85;;;8.63;;
35917;SDS011;22011;59.912;30.300;2023-06-22T05:26:34;15.32;;;9.63;;
35917;SDS011;22011;59.912;30.300;2023-06-22T05:29:02;16.30;;;9.25;;
35917;SDS011;22011;59.912;30.300;2023-06-22T05:31:30;15.00;;;8.88;;
35917;SDS011;22011;59.912;30.300;2023-06-22T05:33:57;14.23;;;8.63;;
35917;SDS011;22011;59.912;30.300;2023-06-22T05:36:25;21.75;;;9.00;;
35917;SDS011;22011;59.912;30.300;2023-06-22T05:38:53;11.45;;;9.27;;
35917;SDS011;22011;59.912;30.300;2023-06-22T05:41:20;11.18;;;8.88;;
35917;SDS011;22011;59.912;30.300;2023-06-22T05:43:49;23.15;;;9.88;;
35917;SDS011;22011;59.912;30.300;2023-06-22T05:46:16;23.07;;;9.10;;
35917;SDS011;22011;59.912;30.300;2023-06-22T05:48:44;13.18;;;8.88;;
35917;SDS011;22011;59.912;30.300;2023-06-22T05:51:12;16.80;;;8.82;;
35917;SDS011;22011;59.912;30.300;2023-06-22T05:53:39;20.23;;;9.27;;
35917;SDS011;22011;59.912;30.300;2023-06-22T05:56:07;14.13;;;8.77;;
35917;SDS011;22011;59.912;30.300;2023-06-22T05:58:35;20.33;;;8.52;;
35917;SDS011;22011;59.912;30.300;2023-06-22T06:01:03;13.65;;;8.57;;
35917;SDS011;22011;59.912;30.300;2023-06-22T06:03:31;14.83;;;8.40;;
35917;SDS011;22011;59.912;30.300;2023-06-22T06:05:58;18.73;;;9.07;;
35917;SDS011;22011;59.912;30.300;2023-06-22T06:08:28;26.30;;;10.40;;
35917;SDS011;22011;59.912;30.300;2023-06-22T06:10:55;14.88;;;9.13;;
35917;SDS011;22011;59.912;30.300;2023-06-22T06:13:23;14.63;;;9.93;;
35917;SDS011;22011;59.912;30.300;2023-06-22T06:15:51;18.45;;;8.60;;
35917;SDS011;22011;59.912;30.300;2023-06-22T06:18:22;14.55;;;8.80;;
35917;SDS011;22011;59.912;30.300;2023-06-22T06:20:49;14.82;;;8.93;;
35917;SDS011;22011;59.912;30.300;2023-06-22T06:23:17;14.07;;;8.63;;
35917;SDS011;22011;59.912;30.300;2023-06-22T06:25:44;16.77;;;8.77;;
35917;SDS011;22011;59.912;30.300;2023-06-22T06:28:12;19.67;;;8.43;;
35917;SDS011;22011;59.912;30.300;2023-06-22T06:30:39;14.73;;;8.93;;
35917;SDS011;22011;59.912;30.300;2023-06-22T06:33:07;19.17;;;8.40;;
35917;SDS011;22011;59.912;30.300;2023-06-22T06:35:35;19.65;;;9.38;;
35917;SDS011;22011;59.912;30.300;2023-06-22T06:38:03;15.80;;;8.60;;
35917;SDS011;22011;59.912;30.300;2023-06-22T06:40:31;31.92;;;9.35;;
35917;SDS011;22011;59.912;30.300;2023-06-22T06:42:58;19.92;;;9.82;;
35917;SDS011;22011;59.912;30.300;2023-06-22T06:45:27;29.30;;;9.87;;
35917;SDS011;22011;59.912;30.300;2023-06-22T06:50:24;16.77;;;8.98;;
35917;SDS011;22011;59.912;30.300;2023-06-22T06:52:52;18.90;;;9.38;;
35917;SDS011;22011;59.912;30.300;2023-06-22T06:55:20;16.48;;;9.43;;
35917;SDS011;22011;59.912;30.300;2023-06-22T06:57:51;25.65;;;10.23;;
35917;SDS011;22011;59.912;30.300;2023-06-22T07:00:18;24.17;;;9.35;;
35917;SDS011;22011;59.912;30.300;2023-06-22T07:02:47;13.65;;;8.45;;
35917;SDS011;22011;59.912;30.300;2023-06-22T07:05:14;19.83;;;7.53;;
35917;SDS011;22011;59.912;30.300;2023-06-22T07:07:42;15.70;;;8.68;;
35917;SDS011;22011;59.912;30.300;2023-06-22T07:10:11;23.90;;;9.35;;
35917;SDS011;22011;59.912;30.300;2023-06-22T07:12:38;26.45;;;11.48;;
35917;SDS011;22011;59.912;30.300;2023-06-22T07:15:06;18.55;;;8.98;;
35917;SDS011;22011;59.912;30.300;2023-06-22T07:17:35;43.72;;;15.82;;
35917;SDS011;22011;59.912;30.300;2023-06-22T07:20:03;22.00;;;10.52;;
35917;SDS011;22011;59.912;30.300;2023-06-22T07:22:35;20.50;;;10.63;;
35917;SDS011;22011;59.912;30.300;2023-06-22T07:25:03;28.95;;;12.02;;
35917;SDS011;22011;59.912;30.300;2023-06-22T07:27:36;25.42;;;8.63;;
35917;SDS011;22011;59.912;30.300;2023-06-22T07:30:06;13.15;;;8.20;;
35917;SDS011;22011;59.912;30.300;2023-06-22T07:32:34;18.88;;;9.75;;
35917;SDS011;22011;59.912;30.300;2023-06-22T07:35:02;22.17;;;11.55;;
35917;SDS011;22011;59.912;30.300;2023-06-22T07:37:30;28.43;;;12.73;;
35917;SDS011;22011;59.912;30.300;2023-06-22T07:39:59;14.43;;;9.27;;
35917;SDS011;22011;59.912;30.300;2023-06-22T07:42:26;20.35;;;9.27;;
35917;SDS011;22011;59.912;30.300;2023-06-22T07:44:56;22.52;;;8.63;;
35917;SDS011;22011;59.912;30.300;2023-06-22T07:47:23;10.25;;;8.02;;
35917;SDS011;22011;59.912;30.300;2023-06-22T07:49:54;24.42;;;9.23;;
35917;SDS011;22011;59.912;30.300;2023-06-22T07:52:23;28.27;;;9.27;;
35917;SDS011;22011;59.912;30.300;2023-06-22T07:54:52;19.08;;;9.48;;
35917;SDS011;22011;59.912;30.300;2023-06-22T07:57:19;36.25;;;12.85;;
35917;SDS011;22011;59.912;30.300;2023-06-22T07:59:47;16.80;;;8.85;;
35917;SDS011;22011;59.912;30.300;2023-06-22T08:02:16;16.08;;;8.80;;
35917;SDS011;22011;59.912;30.300;2023-06-22T08:04:43;24.58;;;10.18;;
35917;SDS011;22011;59.912;30.300;2023-06-22T08:07:11;22.17;;;9.77;;
35917;SDS011;22011;59.912;30.300;2023-06-22T08:09:39;48.08;;;16.95;;
35917;SDS011;22011;59.912;30.300;2023-06-22T08:12:13;24.25;;;9.48;;
35917;SDS011;22011;59.912;30.300;2023-06-22T08:14:41;17.17;;;9.07;;
35917;SDS011;22011;59.912;30.300;2023-06-22T08:17:10;22.27;;;9.25;;
35917;SDS011;22011;59.912;30.300;2023-06-22T08:19:39;19.42;;;7.80;;
35917;SDS011;22011;59.912;30.300;2023-06-22T08:22:07;22.27;;;8.77;;
35917;SDS011;22011;59.912;30.300;2023-06-22T08:24:34;12.88;;;7.28;;
35917;SDS011;22011;59.912;30.300;2023-06-22T08:27:02;9.57;;;4.78;;
35917;SDS011;22011;59.912;30.300;2023-06-22T08:29:29;10.60;;;6.38;;
35917;SDS011;22011;59.912;30.300;2023-06-22T08:31:57;16.17;;;8.15;;
35917;SDS011;22011;59.912;30.300;2023-06-22T08:34:24;14.13;;;8.18;;
35917;SDS011;22011;59.912;30.300;2023-06-22T08:36:55;21.60;;;8.65;;
35917;SDS011;22011;59.912;30.300;2023-06-22T08:39:22;12.52;;;7.00;;
35917;SDS011;22011;59.912;30.300;2023-06-22T08:41:50;11.98;;;7.53;;
35917;SDS011;22011;59.912;30.300;2023-06-22T08:44:18;10.15;;;6.93;;
35917;SDS011;22011;59.912;30.300;2023-06-22T08:46:46;13.15;;;7.47;;
35917;SDS011;22011;59.912;30.300;2023-06-22T08:49:13;20.95;;;7.00;;
35917;SDS011;22011;59.912;30.300;2023-06-22T08:51:41;12.90;;;6.32;;
35917;SDS011;22011;59.912;30.300;2023-06-22T08:54:11;12.60;;;6.60;;
35917;SDS011;22011;59.912;30.300;2023-06-22T08:56:39;16.05;;;7.68;;
35917;SDS011;22011;59.912;30.300;2023-06-22T08:59:09;19.45;;;7.80;;
35917;SDS011;22011;59.912;30.300;2023-06-22T09:01:37;17.83;;;7.82;;
35917;SDS011;22011;59.912;30.300;2023-06-22T09:04:04;11.52;;;5.95;;
35917;SDS011;22011;59.912;30.300;2023-06-22T09:06:35;16.27;;;7.68;;
35917;SDS011;22011;59.912;30.300;2023-06-22T09:09:07;10.25;;;7.07;;
35917;SDS011;22011;59.912;30.300;2023-06-22T09:11:36;11.57;;;8.35;;
35917;SDS011;22011;59.912;30.300;2023-06-22T09:14:03;10.98;;;6.13;;
35917;SDS011;22011;59.912;30.300;2023-06-22T09:16:31;12.00;;;6.07;;
35917;SDS011;22011;59.912;30.300;2023-06-22T09:18:59;9.15;;;6.95;;
35917;SDS011;22011;59.912;30.300;2023-06-22T09:21:26;12.95;;;6.90;;
35917;SDS011;22011;59.912;30.300;2023-06-22T09:23:54;14.55;;;7.68;;
35917;SDS011;22011;59.912;30.300;2023-06-22T09:26:22;8.75;;;6.53;;
35917;SDS011;22011;59.912;30.300;2023-06-22T09:28:52;13.18;;;8.23;;
35917;SDS011;22011;59.912;30.300;2023-06-22T09:31:19;13.88;;;8.80;;
35917;SDS011;22011;59.912;30.300;2023-06-22T09:33:51;13.95;;;7.38;;
35917;SDS011;22011;59.912;30.300;2023-06-22T09:36:19;14.05;;;7.60;;
35917;SDS011;22011;59.912;30.300;2023-06-22T09:38:47;15.05;;;8.20;;
35917;SDS011;22011;59.912;30.300;2023-06-22T09:41:21;19.25;;;8.68;;
35917;SDS011;22011;59.912;30.300;2023-06-22T09:43:49;10.65;;;6.32;;
35917;SDS011;22011;59.912;30.300;2023-06-22T09:46:18;20.33;;;8.77;;
35917;SDS011;22011;59.912;30.300;2023-06-22T09:48:47;19.85;;;8.93;;
35917;SDS011;22011;59.912;30.300;2023-06-22T09:51:15;10.93;;;7.38;;
35917;SDS011;22011;59.912;30.300;2023-06-22T09:53:42;14.38;;;8.45;;
35917;SDS011;22011;59.912;30.300;2023-06-22T09:56:10;17.55;;;7.57;;
35917;SDS011;22011;59.912;30.300;2023-06-22T09:58:40;22.83;;;8.77;;
35917;SDS011;22011;59.912;30.300;2023-06-22T10:01:08;8.73;;;6.53;;
35917;SDS011;22011;59.912;30.300;2023-06-22T10:03:38;23.77;;;8.52;;
35917;SDS011;22011;59.912;30.300;2023-06-22T10:06:05;12.15;;;8.38;;
35917;SDS011;22011;59.912;30.300;2023-06-22T10:08:33;13.73;;;7.78;;
35917;SDS011;22011;59.912;30.300;2023-06-22T10:11:00;20.60;;;9.05;;
35917;SDS011;22011;59.912;30.300;2023-06-22T10:13:28;17.48;;;8.50;;
35917;SDS011;22011;59.912;30.300;2023-06-22T10:15:55;17.08;;;8.20;;
35917;SDS011;22011;59.912;30.300;2023-06-22T10:18:23;11.23;;;8.45;;
35917;SDS011;22011;59.912;30.300;2023-06-22T10:20:52;13.60;;;8.05;;
35917;SDS011;22011;59.912;30.300;2023-06-22T10:23:19;11.77;;;8.10;;
35917;SDS011;22011;59.912;30.300;2023-06-22T10:25:47;15.98;;;8.48;;
35917;SDS011;22011;59.912;30.300;2023-06-22T10:28:15;22.75;;;9.35;;
35917;SDS011;22011;59.912;30.300;2023-06-22T10:30:42;21.60;;;10.02;;
35917;SDS011;22011;59.912;30.300;2023-06-22T10:33:10;20.63;;;9.18;;
35917;SDS011;22011;59.912;30.300;2023-06-22T10:35:39;13.73;;;9.32;;
35917;SDS011;22011;59.912;30.300;2023-06-22T10:38:08;16.90;;;9.50;;
35917;SDS011;22011;59.912;30.300;2023-06-22T10:40:35;16.80;;;9.25;;
35917;SDS011;22011;59.912;30.300;2023-06-22T10:43:03;24.48;;;11.25;;
35917;SDS011;22011;59.912;30.300;2023-06-22T10:45:30;24.20;;;10.57;;
35917;SDS011;22011;59.912;30.300;2023-06-22T10:47:58;31.10;;;13.60;;
35917;SDS011;22011;59.912;30.300;2023-06-22T10:50:25;20.95;;;13.02;;
35917;SDS011;22011;59.912;30.300;2023-06-22T10:52:53;14.13;;;9.88;;
35917;SDS011;22011;59.912;30.300;2023-06-22T10:55:22;19.75;;;9.75;;
35917;SDS011;22011;59.912;30.300;2023-06-22T10:57:50;15.82;;;9.02;;
35917;SDS011;22011;59.912;30.300;2023-06-22T11:00:18;14.65;;;9.82;;
35917;SDS011;22011;59.912;30.300;2023-06-22T11:02:47;16.73;;;10.55;;
35917;SDS011;22011;59.912;30.300;2023-06-22T11:05:14;21.60;;;10.18;;
35917;SDS011;22011;59.912;30.300;2023-06-22T11:07:42;23.20;;;10.10;;
35917;SDS011;22011;59.912;30.300;2023-06-22T11:10:10;16.70;;;9.73;;
35917;SDS011;22011;59.912;30.300;2023-06-22T11:12:39;16.40;;;9.85;;
35917;SDS011;22011;59.912;30.300;2023-06-22T11:15:08;13.35;;;9.98;;
35917;SDS011;22011;59.912;30.300;2023-06-22T11:17:36;17.63;;;9.88;;
35917;SDS011;22011;59.912;30.300;2023-06-22T11:20:03;12.20;;;9.02;;
35917;SDS011;22011;59.912;30.300;2023-06-22T11:22:36;14.23;;;9.90;;
35917;SDS011;22011;59.912;30.300;2023-06-22T11:25:05;13.35;;;9.23;;
35917;SDS011;22011;59.912;30.300;2023-06-22T11:27:33;17.20;;;8.45;;
35917;SDS011;22011;59.912;30.300;2023-06-22T11:30:02;15.40;;;9.02;;
35917;SDS011;22011;59.912;30.300;2023-06-22T11:32:30;10.02;;;8.15;;
35917;SDS011;22011;59.912;30.300;2023-06-22T11:34:58;16.40;;;9.02;;
35917;SDS011;22011;59.912;30.300;2023-06-22T11:37:25;12.25;;;8.52;;
35917;SDS011;22011;59.912;30.300;2023-06-22T11:39:53;18.73;;;10.32;;
35917;SDS011;22011;59.912;30.300;2023-06-22T11:42:21;17.30;;;12.20;;
35917;SDS011;22011;59.912;30.300;2023-06-22T11:44:49;17.38;;;12.35;;
35917;SDS011;22011;59.912;30.300;2023-06-22T11:47:18;25.25;;;13.43;;
35917;SDS011;22011;59.912;30.300;2023-06-22T11:49:45;17.27;;;12.70;;
35917;SDS011;22011;59.912;30.300;2023-06-22T11:52:13;16.38;;;10.20;;
35917;SDS011;22011;59.912;30.300;2023-06-22T11:54:40;13.77;;;11.00;;
35917;SDS011;22011;59.912;30.300;2023-06-22T11:57:08;14.90;;;9.80;;
35917;SDS011;22011;59.912;30.300;2023-06-22T11:59:35;13.18;;;9.75;;
35917;SDS011;22011;59.912;30.300;2023-06-22T12:02:03;14.88;;;10.18;;
35917;SDS011;22011;59.912;30.300;2023-06-22T12:04:34;18.15;;;9.43;;
35917;SDS011;22011;59.912;30.300;2023-06-22T12:07:02;20.05;;;9.25;;
35917;SDS011;22011;59.912;30.300;2023-06-22T12:09:30;12.90;;;9.30;;
35917;SDS011;22011;59.912;30.300;2023-06-22T12:11:57;15.05;;;9.43;;
35917;SDS011;22011;59.912;30.300;2023-06-22T12:14:25;13.02;;;8.73;;
35917;SDS011;22011;59.912;30.300;2023-06-22T12:16:52;12.10;;;9.10;;
35917;SDS011;22011;59.912;30.300;2023-06-22T12:19:20;17.98;;;8.98;;
35917;SDS011;22011;59.912;30.300;2023-06-22T12:21:49;19.05;;;8.13;;
35917;SDS011;22011;59.912;30.300;2023-06-22T12:24:16;10.18;;;7.82;;
35917;SDS011;22011;59.912;30.300;2023-06-22T12:26:43;14.52;;;8.48;;
35917;SDS011;22011;59.912;30.300;2023-06-22T12:29:11;12.32;;;7.93;;
35917;SDS011;22011;59.912;30.300;2023-06-22T12:31:39;14.63;;;8.00;;
35917;SDS011;22011;59.912;30.300;2023-06-22T12:34:07;16.48;;;8.82;;
35917;SDS011;22011;59.912;30.300;2023-06-22T12:36:34;13.02;;;8.15;;
35917;SDS011;22011;59.912;30.300;2023-06-22T12:39:03;10.23;;;6.55;;
35917;SDS011;22011;59.912;30.300;2023-06-22T12:41:31;14.05;;;7.97;;
35917;SDS011;22011;59.912;30.300;2023-06-22T12:43:59;10.57;;;8.88;;
35917;SDS011;22011;59.912;30.300;2023-06-22T12:46:26;19.65;;;8.45;;
35917;SDS011;22011;59.912;30.300;2023-06-22T12:48:54;11.10;;;8.48;;
35917;SDS011;22011;59.912;30.300;2023-06-22T12:51:22;11.88;;;7.53;;
35917;SDS011;22011;59.912;30.300;2023-06-22T12:53:50;12.43;;;9.13;;
35917;SDS011;22011;59.912;30.300;2023-06-22T12:56:19;12.75;;;8.77;;
35917;SDS011;22011;59.912;30.300;2023-06-22T12:58:46;16.25;;;9.05;;
35917;SDS011;22011;59.912;30.300;2023-06-22T13:01:13;17.05;;;9.30;;
35917;SDS011;22011;59.912;30.300;2023-06-22T13:03:41;16.33;;;9.73;;
35917;SDS011;22011;59.912;30.300;2023-06-22T13:06:09;14.98;;;8.70;;
35917;SDS011;22011;59.912;30.300;2023-06-22T13:08:36;12.00;;;10.10;;
35917;SDS011;22011;59.912;30.300;2023-06-22T13:11:04;22.98;;;9.50;;
35917;SDS011;22011;59.912;30.300;2023-06-22T13:13:33;26.77;;;11.70;;
35917;SDS011;22011;59.912;30.300;2023-06-22T13:16:01;20.20;;;10.85;;
35917;SDS011;22011;59.912;30.300;2023-06-22T13:18:28;14.55;;;11.13;;
35917;SDS011;22011;59.912;30.300;2023-06-22T13:20:56;14.50;;;12.23;;
35917;SDS011;22011;59.912;30.300;2023-06-22T13:23:24;14.85;;;13.15;;
35917;SDS011;22011;59.912;30.300;2023-06-22T13:25:51;17.02;;;12.00;;
35917;SDS011;22011;59.912;30.300;2023-06-22T13:28:19;14.27;;;12.85;;
35917;SDS011;22011;59.912;30.300;2023-06-22T13:30:48;16.80;;;12.60;;
35917;SDS011;22011;59.912;30.300;2023-06-22T13:33:15;14.25;;;12.88;;
35917;SDS011;22011;59.912;30.300;2023-06-22T13:35:43;13.90;;;12.48;;
35917;SDS011;22011;59.912;30.300;2023-06-22T13:38:10;13.13;;;11.52;;
35917;SDS011;22011;59.912;30.300;2023-06-22T13:40:38;14.90;;;12.98;;
35917;SDS011;22011;59.912;30.300;2023-06-22T13:43:06;14.00;;;12.70;;
35917;SDS011;22011;59.912;30.300;2023-06-22T13:45:34;14.27;;;12.93;;
35917;SDS011;22011;59.912;30.300;2023-06-22T13:48:03;15.30;;;13.75;;
35917;SDS011;22011;59.912;30.300;2023-06-22T13:50:31;15.35;;;13.85;;
35917;SDS011;22011;59.912;30.300;2023-06-22T13:52:58;15.75;;;14.25;;
35917;SDS011;22011;59.912;30.300;2023-06-22T13:55:26;17.98;;;14.55;;
35917;SDS011;22011;59.912;30.300;2023-06-22T13:57:53;15.93;;;14.43;;
35917;SDS011;22011;59.912;30.300;2023-06-22T14:00:21;17.17;;;15.48;;
35917;SDS011;22011;59.912;30.300;2023-06-22T14:02:49;17.70;;;14.40;;
35917;SDS011;22011;59.912;30.300;2023-06-22T14:05:18;15.18;;;13.63;;
35917;SDS011;22011;59.912;30.300;2023-06-22T14:07:45;16.10;;;14.13;;
35917;SDS011;22011;59.912;30.300;2023-06-22T14:10:12;18.45;;;13.70;;
35917;SDS011;22011;59.912;30.300;2023-06-22T14:12:40;14.95;;;13.50;;
35917;SDS011;22011;59.912;30.300;2023-06-22T14:15:08;14.82;;;13.43;;
35917;SDS011;22011;59.912;30.300;2023-06-22T14:17:35;14.25;;;12.88;;
35917;SDS011;22011;59.912;30.300;2023-06-22T14:20:03;15.52;;;13.57;;
35917;SDS011;22011;59.912;30.300;2023-06-22T14:22:35;13.95;;;12.48;;
35917;SDS011;22011;59.912;30.300;2023-06-22T14:25:04;12.80;;;11.50;;
35917;SDS011;22011;59.912;30.300;2023-06-22T14:27:32;12.65;;;11.32;;
35917;SDS011;22011;59.912;30.300;2023-06-22T14:30:01;12.63;;;11.40;;
35917;SDS011;22011;59.912;30.300;2023-06-22T14:32:29;12.82;;;11.60;;
35917;SDS011;22011;59.912;30.300;2023-06-22T14:34:56;12.82;;;11.55;;